createdAt,value
2018-05-14T00:01:20.235Z,16.50
2018-05-14T00:03:47.779Z,16.50
2018-05-14T00:06:15.897Z,16.50
2018-05-14T00:08:43.349Z,16.40
2018-05-14T00:11:10.804Z,16.40
2018-05-14T00:13:38.245Z,16.30
2018-05-14T00:16:05.703Z,16.30
2018-05-14T00:18:33.150Z,16.30
2018-05-14T00:21:00.607Z,16.30
2018-05-14T00:23:28.061Z,16.30
2018-05-14T00:25:55.516Z,16.40
2018-05-14T00:28:22.972Z,16.40
2018-05-14T00:30:50.430Z,16.40
2018-05-14T00:33:17.902Z,16.40
2018-05-14T00:35:45.347Z,16.40
2018-05-14T00:38:12.802Z,16.40
2018-05-14T00:40:41.009Z,16.40
2018-05-14T00:43:08.455Z,16.40
2018-05-14T00:45:35.902Z,16.40
2018-05-14T00:48:03.345Z,16.40
2018-05-14T00:50:30.803Z,16.40
2018-05-14T00:52:58.261Z,16.40
2018-05-14T00:55:25.698Z,16.40
2018-05-14T00:57:53.174Z,16.40
2018-05-14T01:00:21.373Z,16.30
2018-05-14T01:02:48.830Z,16.30
2018-05-14T01:05:16.278Z,16.30
2018-05-14T01:07:43.734Z,16.30
2018-05-14T01:10:11.172Z,16.30
2018-05-14T01:12:38.628Z,16.30
2018-05-14T01:15:06.085Z,16.30
2018-05-14T01:17:34.301Z,16.20
2018-05-14T01:20:01.759Z,16.20
2018-05-14T01:22:29.219Z,16.20
2018-05-14T01:25:02.304Z,16.20
2018-05-14T01:27:29.774Z,16.20
2018-05-14T01:29:57.219Z,16.20
2018-05-14T01:32:24.669Z,16.30
2018-05-14T01:34:52.115Z,16.40
2018-05-14T01:37:19.567Z,16.40
2018-05-14T01:39:47.027Z,16.40
2018-05-14T01:42:14.482Z,16.40
2018-05-14T01:44:41.938Z,16.40
2018-05-14T01:47:10.160Z,16.40
2018-05-14T01:49:37.610Z,16.40
2018-05-14T01:52:05.059Z,16.40
2018-05-14T01:54:32.502Z,16.30
2018-05-14T01:56:59.959Z,16.30
2018-05-14T01:59:27.394Z,16.20
2018-05-14T02:01:54.851Z,16.20
2018-05-14T02:04:22.308Z,16.30
2018-05-14T02:06:50.592Z,16.30
2018-05-14T02:09:18.727Z,16.30
2018-05-14T02:11:46.940Z,16.30
2018-05-14T02:14:14.380Z,16.30
2018-05-14T02:16:41.855Z,16.30
2018-05-14T02:19:09.302Z,16.30
2018-05-14T02:21:36.737Z,16.20
2018-05-14T02:24:04.189Z,16.20
2018-05-14T02:26:31.662Z,16.20
2018-05-14T02:28:59.103Z,16.20
2018-05-14T02:31:26.569Z,16.30
2018-05-14T02:33:53.995Z,16.40
2018-05-14T02:36:21.449Z,16.40
2018-05-14T02:38:48.897Z,16.30
2018-05-14T02:41:16.338Z,16.30
2018-05-14T02:43:43.810Z,16.30
2018-05-14T02:46:11.249Z,16.30
2018-05-14T02:48:38.710Z,16.30
2018-05-14T02:51:06.158Z,16.30
2018-05-14T02:53:33.622Z,16.30
2018-05-14T02:56:01.838Z,16.40
2018-05-14T02:58:29.283Z,16.40
2018-05-14T03:00:56.727Z,16.30
2018-05-14T03:03:24.174Z,16.40
2018-05-14T03:05:51.615Z,16.40
2018-05-14T03:08:19.058Z,16.40
2018-05-14T03:10:46.504Z,16.40
2018-05-14T03:13:13.960Z,16.30
2018-05-14T03:15:41.413Z,16.30
2018-05-14T03:18:09.626Z,16.20
2018-05-14T03:20:37.083Z,16.20
2018-05-14T03:23:04.521Z,16.20
2018-05-14T03:25:31.968Z,16.20
2018-05-14T03:27:59.433Z,16.20
2018-05-14T03:30:26.876Z,16.20
2018-05-14T03:32:54.333Z,16.20
2018-05-14T03:35:21.762Z,16.10
2018-05-14T03:37:49.276Z,16.10
2018-05-14T03:40:16.715Z,16.10
2018-05-14T03:42:44.180Z,16.10
2018-05-14T03:45:11.611Z,16.10
2018-05-14T03:47:39.068Z,16.20
2018-05-14T03:50:06.497Z,16.20
2018-05-14T03:52:33.950Z,16.20
2018-05-14T03:55:01.395Z,16.20
2018-05-14T03:57:28.851Z,16.20
2018-05-14T04:00:08.169Z,16.20
2018-05-14T04:02:47.464Z,16.20
2018-05-14T04:05:19.858Z,16.20
2018-05-14T04:07:48.076Z,16.30
2018-05-14T04:10:15.527Z,16.20
2018-05-14T04:12:42.969Z,16.30
2018-05-14T04:15:10.425Z,16.30
2018-05-14T04:17:37.885Z,16.40
2018-05-14T04:20:06.181Z,16.40
2018-05-14T04:22:33.634Z,16.30
2018-05-14T04:25:01.095Z,16.30
2018-05-14T04:27:28.569Z,16.30
2018-05-14T04:29:56.009Z,16.40
2018-05-14T04:32:23.465Z,16.40
2018-05-14T04:34:50.926Z,16.40
2018-05-14T04:37:18.353Z,16.40
2018-05-14T04:39:46.564Z,16.40
2018-05-14T04:42:14.011Z,16.40
2018-05-14T04:44:41.472Z,16.50
2018-05-14T04:47:08.914Z,16.50
2018-05-14T04:49:36.366Z,16.60
2018-05-14T04:52:03.814Z,16.60
2018-05-14T04:54:31.290Z,16.60
2018-05-14T04:56:59.495Z,16.60
2018-05-14T04:59:26.947Z,16.60
2018-05-14T05:01:54.374Z,16.60
2018-05-14T05:04:21.817Z,16.70
2018-05-14T05:06:49.270Z,16.70
2018-05-14T05:09:16.735Z,16.70
2018-05-14T05:11:44.185Z,16.80
2018-05-14T05:14:11.646Z,16.80
2018-05-14T05:16:39.099Z,16.90
2018-05-14T05:19:06.559Z,16.90
2018-05-14T05:21:34.016Z,16.80
2018-05-14T05:24:01.491Z,16.80
2018-05-14T05:26:28.944Z,16.80
2018-05-14T05:28:57.166Z,16.90
2018-05-14T05:31:24.667Z,16.80
2018-05-14T05:33:52.123Z,16.80
2018-05-14T05:36:19.581Z,16.90
2018-05-14T05:38:47.039Z,16.80
2018-05-14T05:41:14.494Z,16.90
2018-05-14T05:43:41.953Z,16.80
2018-05-14T05:46:09.426Z,16.90
2018-05-14T05:48:37.639Z,17.00
2018-05-14T05:51:05.102Z,17.00
2018-05-14T05:53:32.552Z,17.10
2018-05-14T05:56:00.007Z,17.10
2018-05-14T05:58:28.238Z,17.10
2018-05-14T06:00:55.690Z,17.10
2018-05-14T06:03:23.144Z,17.10
2018-05-14T06:05:50.593Z,17.00
2018-05-14T06:08:18.805Z,17.10
2018-05-14T06:10:46.249Z,17.00
2018-05-14T06:13:13.706Z,17.00
2018-05-14T06:15:41.153Z,17.00
2018-05-14T06:18:08.622Z,17.00
2018-05-14T06:20:36.847Z,16.90
2018-05-14T06:23:04.307Z,16.90
2018-05-14T06:25:31.819Z,16.90
2018-05-14T06:27:59.295Z,16.90
2018-05-14T06:30:26.774Z,17.00
2018-05-14T06:32:54.226Z,17.00
2018-05-14T06:35:21.695Z,17.10
2018-05-14T06:37:49.142Z,17.00
2018-05-14T06:40:16.682Z,17.00
2018-05-14T06:42:44.053Z,17.00
2018-05-14T06:45:11.505Z,17.00
2018-05-14T06:47:38.962Z,17.00
2018-05-14T06:50:07.174Z,17.10
2018-05-14T06:52:34.613Z,17.10
2018-05-14T06:55:02.083Z,17.10
2018-05-14T06:57:29.531Z,17.10
2018-05-14T06:59:56.980Z,17.20
2018-05-14T07:02:24.419Z,17.20
2018-05-14T07:04:51.878Z,17.20
2018-05-14T07:07:20.091Z,17.30
2018-05-14T07:09:47.546Z,17.30
2018-05-14T07:12:15.007Z,17.50
2018-05-14T07:14:42.460Z,17.50
2018-05-14T07:17:10.666Z,17.60
2018-05-14T07:19:38.122Z,17.60
2018-05-14T07:22:05.575Z,17.60
2018-05-14T07:24:33.014Z,17.60
2018-05-14T07:27:00.458Z,17.60
2018-05-14T07:29:27.998Z,17.60
2018-05-14T07:31:55.451Z,17.70
2018-05-14T07:34:22.917Z,17.80
2018-05-14T07:36:50.361Z,17.90
2018-05-14T07:39:17.815Z,17.90
2018-05-14T07:41:46.026Z,18.00
2018-05-14T07:44:13.486Z,18.00
2018-05-14T07:46:40.943Z,18.00
2018-05-14T07:49:08.390Z,18.00
2018-05-14T07:51:35.839Z,18.00
2018-05-14T07:54:03.298Z,18.10
2018-05-14T07:56:31.506Z,18.20
2018-05-14T07:58:58.936Z,18.20
2018-05-14T08:01:26.399Z,18.30
2018-05-14T08:03:53.854Z,18.40
2018-05-14T08:06:21.302Z,18.60
2018-05-14T08:08:48.744Z,18.60
2018-05-14T08:11:16.217Z,18.70
2018-05-14T08:13:44.431Z,18.70
2018-05-14T08:16:11.867Z,18.70
2018-05-14T08:18:39.358Z,18.60
2018-05-14T08:21:06.819Z,18.70
2018-05-14T08:23:34.331Z,18.70
2018-05-14T08:26:01.749Z,18.70
2018-05-14T08:28:29.201Z,18.70
2018-05-14T08:30:56.663Z,18.70
2018-05-14T08:33:24.128Z,18.60
2018-05-14T08:35:52.353Z,18.50
2018-05-14T08:38:19.790Z,18.50
2018-05-14T08:40:47.245Z,18.50
2018-05-14T08:43:14.715Z,18.40
2018-05-14T08:45:42.161Z,18.50
2018-05-14T08:48:09.612Z,18.50
2018-05-14T08:50:37.058Z,18.50
2018-05-14T08:53:04.495Z,18.50
2018-05-14T08:55:31.946Z,18.40
2018-05-14T08:57:59.381Z,18.30
2018-05-14T09:00:26.822Z,18.40
2018-05-14T09:02:54.316Z,18.40
2018-05-14T09:05:21.780Z,18.30
2018-05-14T09:07:49.209Z,18.30
2018-05-14T09:10:16.654Z,18.20
2018-05-14T09:12:44.098Z,18.30
2018-05-14T09:15:11.541Z,18.20
2018-05-14T09:17:38.991Z,18.20
2018-05-14T09:20:06.493Z,18.20
2018-05-14T09:22:33.938Z,18.20
2018-05-14T09:25:01.386Z,18.20
2018-05-14T09:27:28.824Z,18.20
2018-05-14T09:29:56.658Z,18.30
2018-05-14T09:32:24.107Z,18.30
2018-05-14T09:34:51.551Z,18.40
2018-05-14T09:37:18.996Z,18.50
2018-05-14T09:39:46.451Z,18.60
2018-05-14T09:42:13.895Z,18.70
2018-05-14T09:44:41.339Z,18.80
2018-05-14T09:47:08.836Z,18.90
2018-05-14T09:49:36.327Z,18.60
2018-05-14T09:52:03.774Z,18.60
2018-05-14T09:54:31.286Z,18.80
2018-05-14T09:56:58.736Z,18.80
2018-05-14T09:59:26.205Z,19.00
2018-05-14T10:01:53.638Z,18.90
2018-05-14T10:04:21.098Z,19.10
2018-05-14T10:06:48.587Z,19.20
2018-05-14T10:09:16.809Z,19.20
2018-05-14T10:11:44.266Z,19.20
2018-05-14T10:14:11.718Z,19.20
2018-05-14T10:16:39.926Z,18.80
2018-05-14T10:19:07.381Z,18.80
2018-05-14T10:21:34.842Z,18.90
2018-05-14T10:24:02.294Z,19.00
2018-05-14T10:26:29.754Z,19.10
2018-05-14T10:28:57.950Z,19.30
2018-05-14T10:31:25.398Z,19.30
2018-05-14T10:33:52.847Z,19.30
2018-05-14T10:36:20.304Z,19.20
2018-05-14T10:38:47.746Z,19.30
2018-05-14T10:41:15.209Z,19.30
2018-05-14T10:43:42.667Z,19.50
2018-05-14T10:46:10.870Z,19.60
2018-05-14T10:48:38.302Z,19.50
2018-05-14T10:51:05.767Z,19.30
2018-05-14T10:53:33.217Z,19.30
2018-05-14T10:56:00.656Z,19.40
2018-05-14T10:58:28.102Z,19.60
2018-05-14T11:00:56.310Z,19.80
2018-05-14T11:03:24.534Z,19.80
2018-05-14T11:05:51.982Z,19.80
2018-05-14T11:08:19.446Z,19.80
2018-05-14T11:10:47.670Z,19.90
2018-05-14T11:13:15.118Z,19.90
2018-05-14T11:15:42.595Z,19.90
2018-05-14T11:18:10.058Z,19.90
2018-05-14T11:20:37.522Z,19.90
2018-05-14T11:23:04.949Z,19.90
2018-05-14T11:25:32.406Z,20.00
2018-05-14T11:27:59.869Z,20.40
2018-05-14T11:30:27.335Z,20.60
2018-05-14T11:32:54.827Z,20.90
2018-05-14T11:35:22.336Z,21.30
2018-05-14T11:37:49.712Z,21.30
2018-05-14T11:40:17.150Z,21.20
2018-05-14T11:42:44.791Z,21.50
2018-05-14T11:45:13.002Z,21.10
2018-05-14T11:47:40.437Z,21.10
2018-05-14T11:50:07.886Z,20.90
2018-05-14T11:52:35.408Z,21.00
2018-05-14T11:55:02.869Z,21.00
2018-05-14T11:57:30.324Z,21.30
2018-05-14T11:59:57.771Z,21.40
2018-05-14T12:02:25.364Z,21.50
2018-05-14T12:04:52.798Z,21.50
2018-05-14T12:07:20.368Z,21.30
2018-05-14T12:09:47.806Z,21.40
2018-05-14T12:12:15.278Z,21.20
2018-05-14T12:14:42.691Z,20.90
2018-05-14T12:17:10.131Z,20.80
2018-05-14T12:19:37.576Z,21.10
2018-05-14T12:22:05.033Z,21.50
2018-05-14T12:24:32.568Z,21.50
2018-05-14T12:27:00.030Z,21.20
2018-05-14T12:29:28.238Z,21.40
2018-05-14T12:31:56.464Z,21.50
2018-05-14T12:34:23.894Z,21.50
2018-05-14T12:36:51.343Z,21.70
2018-05-14T12:39:18.802Z,21.60
2018-05-14T12:41:46.249Z,21.80
2018-05-14T12:44:13.687Z,21.80
2018-05-14T12:46:41.142Z,21.90
2018-05-14T12:49:08.577Z,22.10
2018-05-14T12:51:36.034Z,22.20
2018-05-14T12:54:04.242Z,22.40
2018-05-14T12:56:31.698Z,22.40
2018-05-14T12:58:59.133Z,22.60
2018-05-14T13:01:26.610Z,22.60
2018-05-14T13:03:54.058Z,22.70
2018-05-14T13:06:21.495Z,22.70
2018-05-14T13:08:48.938Z,22.70
2018-05-14T13:11:16.444Z,22.60
2018-05-14T13:13:43.903Z,21.80
2018-05-14T13:16:11.337Z,21.80
2018-05-14T13:18:38.786Z,21.60
2018-05-14T13:21:06.278Z,21.80
2018-05-14T13:23:33.731Z,21.80
2018-05-14T13:26:01.187Z,21.80
2018-05-14T13:28:28.623Z,21.80
2018-05-14T13:30:56.095Z,21.40
2018-05-14T13:33:23.533Z,21.30
2018-05-14T13:35:50.983Z,21.40
2018-05-14T13:38:18.437Z,21.50
2018-05-14T13:40:45.878Z,21.50
2018-05-14T13:43:13.994Z,21.50
2018-05-14T13:45:41.439Z,21.70
2018-05-14T13:48:09.067Z,21.40
2018-05-14T13:50:37.275Z,21.60
2018-05-14T13:53:04.762Z,21.60
2018-05-14T13:55:32.200Z,21.70
2018-05-14T13:58:00.425Z,21.80
2018-05-14T14:00:27.878Z,21.70
2018-05-14T14:02:56.081Z,21.90
2018-05-14T14:05:24.314Z,21.90
2018-05-14T14:07:51.756Z,21.90
2018-05-14T14:10:19.216Z,21.30
2018-05-14T14:12:47.437Z,20.70
2018-05-14T14:15:14.874Z,20.70
2018-05-14T14:17:42.332Z,20.80
2018-05-14T14:20:09.769Z,20.90
2018-05-14T14:22:37.351Z,21.10
2018-05-14T14:25:05.549Z,21.10
2018-05-14T14:27:32.990Z,21.10
2018-05-14T14:30:00.436Z,21.20
2018-05-14T14:32:27.902Z,21.30
2018-05-14T14:34:55.349Z,21.50
2018-05-14T14:37:22.820Z,21.70
2018-05-14T14:39:50.266Z,21.90
2018-05-14T14:42:18.481Z,22.20
2018-05-14T14:44:45.923Z,22.20
2018-05-14T14:47:13.386Z,22.30
2018-05-14T14:49:40.825Z,22.10
2018-05-14T14:52:08.286Z,22.30
2018-05-14T14:54:35.743Z,22.40
2018-05-14T14:57:04.129Z,22.40
2018-05-14T14:59:31.578Z,22.40
2018-05-14T15:01:59.054Z,22.40
2018-05-14T15:04:26.573Z,22.30
2018-05-14T15:06:54.050Z,22.40
2018-05-14T15:09:21.545Z,22.50
2018-05-14T15:11:49.005Z,22.60
2018-05-14T15:14:16.456Z,22.30
2018-05-14T15:16:43.902Z,21.80
2018-05-14T15:19:11.355Z,21.00
2018-05-14T15:21:38.798Z,20.40
2018-05-14T15:24:06.389Z,19.50
2018-05-14T15:26:33.842Z,18.90
2018-05-14T15:29:01.351Z,18.30
2018-05-14T15:31:28.807Z,18.00
2018-05-14T15:33:56.265Z,17.80
2018-05-14T15:36:24.489Z,17.70
2018-05-14T15:38:51.934Z,17.70
2018-05-14T15:41:19.404Z,17.80
2018-05-14T15:43:46.857Z,17.90
2018-05-14T15:46:15.226Z,18.20
2018-05-14T15:48:42.723Z,18.20
2018-05-14T15:51:10.200Z,18.40
2018-05-14T15:53:38.428Z,18.50
2018-05-14T15:56:05.955Z,18.50
2018-05-14T15:58:33.416Z,18.50
2018-05-14T16:01:00.886Z,18.50
2018-05-14T16:03:28.488Z,18.50
2018-05-14T16:05:56.584Z,18.50
2018-05-14T16:08:24.063Z,18.50
2018-05-14T16:10:51.500Z,18.50
2018-05-14T16:13:18.955Z,18.40
2018-05-14T16:15:46.412Z,18.50
2018-05-14T16:18:13.876Z,18.60
2018-05-14T16:20:41.393Z,18.70
2018-05-14T16:23:08.858Z,18.70
2018-05-14T16:25:36.351Z,18.60
2018-05-14T16:28:03.818Z,18.60
2018-05-14T16:30:31.276Z,18.70
2018-05-14T16:32:58.725Z,18.80
2018-05-14T16:35:26.227Z,18.80
2018-05-14T16:37:53.953Z,18.80
2018-05-14T16:40:21.402Z,18.90
2018-05-14T16:42:48.855Z,18.90
2018-05-14T16:45:17.072Z,18.80
2018-05-14T16:47:44.534Z,18.80
2018-05-14T16:50:12.783Z,18.80
2018-05-14T16:52:40.226Z,18.70
2018-05-14T16:55:07.710Z,18.80
2018-05-14T16:57:36.033Z,18.90
2018-05-14T17:00:03.458Z,18.80
2018-05-14T17:02:30.946Z,18.90
2018-05-14T17:04:59.155Z,18.80
2018-05-14T17:07:26.606Z,18.80
2018-05-14T17:09:54.069Z,18.80
2018-05-14T17:12:21.523Z,18.80
2018-05-14T17:14:48.976Z,18.80
2018-05-14T17:17:16.430Z,18.80
2018-05-14T17:19:44.718Z,18.80
2018-05-14T17:22:12.168Z,18.80
2018-05-14T17:24:39.628Z,18.90
2018-05-14T17:27:07.068Z,18.90
2018-05-14T17:29:34.511Z,18.90
2018-05-14T17:32:01.989Z,18.90
2018-05-14T17:34:29.406Z,19.00
2018-05-14T17:36:56.939Z,18.90
2018-05-14T17:39:24.402Z,19.00
2018-05-14T17:41:51.831Z,19.00
2018-05-14T17:44:19.330Z,19.00
2018-05-14T17:46:46.764Z,18.90
2018-05-14T17:49:14.999Z,19.00
2018-05-14T17:51:42.450Z,19.00
2018-05-14T17:54:09.897Z,19.10
2018-05-14T17:56:37.330Z,19.00
2018-05-14T17:59:04.803Z,19.10
2018-05-14T18:01:32.251Z,19.10
2018-05-14T18:03:59.705Z,19.00
2018-05-14T18:06:27.149Z,18.90
2018-05-14T18:08:54.634Z,18.90
2018-05-14T18:11:22.084Z,19.00
2018-05-14T18:13:49.539Z,18.90
2018-05-14T18:16:16.975Z,18.90
2018-05-14T18:18:44.445Z,18.90
2018-05-14T18:21:12.655Z,19.00
2018-05-14T18:23:46.817Z,19.00
2018-05-14T18:26:17.046Z,19.00
2018-05-14T18:28:54.683Z,18.90
2018-05-14T18:31:27.020Z,19.00
2018-05-14T18:33:54.620Z,18.90
2018-05-14T18:36:22.083Z,18.80
2018-05-14T18:38:49.656Z,18.80
2018-05-14T18:41:17.166Z,18.80
2018-05-14T18:43:44.713Z,18.80
2018-05-14T18:46:12.162Z,18.80
2018-05-14T18:48:39.608Z,18.70
2018-05-14T18:51:07.379Z,18.70
2018-05-14T18:53:34.839Z,18.70
2018-05-14T18:56:03.049Z,18.80
2018-05-14T18:58:30.665Z,18.80
2018-05-14T19:00:58.183Z,18.80
2018-05-14T19:03:25.906Z,18.80
2018-05-14T19:05:53.484Z,18.90
2018-05-14T19:08:21.049Z,18.90
2018-05-14T19:10:54.210Z,19.00
2018-05-14T19:13:22.696Z,19.00
2018-05-14T19:18:56.677Z,19.00
2018-05-14T19:21:24.962Z,19.00
2018-05-14T19:23:53.242Z,19.00
2018-05-14T19:26:20.686Z,18.90
2018-05-14T19:28:53.873Z,18.90
2018-05-14T19:31:21.323Z,18.80
2018-05-14T19:33:54.525Z,18.80
2018-05-14T19:36:21.979Z,18.70
2018-05-14T19:38:49.437Z,18.70
2018-05-14T19:41:17.640Z,18.70
2018-05-14T19:43:45.099Z,18.70
2018-05-14T19:46:12.550Z,18.70
2018-05-14T19:48:40.036Z,18.70
2018-05-14T19:51:07.488Z,18.60
2018-05-14T19:53:34.948Z,18.50
2018-05-14T19:56:02.426Z,18.50
2018-05-14T19:58:29.874Z,18.50
2018-05-14T20:00:57.422Z,18.50
2018-05-14T20:03:24.887Z,18.40
2018-05-14T20:05:52.337Z,18.40
2018-05-14T20:08:19.787Z,18.40
2018-05-14T20:10:47.253Z,18.40
2018-05-14T20:13:14.685Z,18.40
2018-05-14T20:15:42.141Z,18.40
2018-05-14T20:18:09.622Z,18.40
2018-05-14T20:20:37.054Z,18.40
2018-05-14T20:23:04.585Z,18.30
2018-05-14T20:25:32.031Z,18.40
2018-05-14T20:27:59.544Z,18.40
2018-05-14T20:30:27.719Z,18.40
2018-05-14T20:32:55.171Z,18.40
2018-05-14T20:35:22.614Z,18.50
2018-05-14T20:37:50.064Z,18.40
2018-05-14T20:40:17.515Z,18.40
2018-05-14T20:42:44.971Z,18.50
2018-05-14T20:45:12.443Z,18.50
2018-05-14T20:47:40.638Z,18.40
2018-05-14T20:50:09.693Z,18.40
2018-05-14T20:52:37.275Z,18.40
2018-05-14T20:55:05.526Z,18.40
2018-05-14T20:57:33.046Z,18.40
2018-05-14T21:00:00.480Z,18.30
2018-05-14T21:02:27.935Z,18.30
2018-05-14T21:04:55.459Z,18.20
2018-05-14T21:07:23.654Z,18.00
2018-05-14T21:09:51.111Z,18.00
2018-05-14T21:12:18.566Z,18.00
2018-05-14T21:14:46.116Z,18.00
2018-05-14T21:17:13.646Z,17.90
2018-05-14T21:19:41.133Z,17.80
2018-05-14T21:22:09.354Z,17.70
2018-05-14T21:24:36.802Z,17.70
2018-05-14T21:27:04.257Z,17.60
2018-05-14T21:29:31.702Z,17.60
2018-05-14T21:31:59.159Z,17.60
2018-05-14T21:34:26.628Z,17.60
2018-05-14T21:36:54.071Z,17.50
2018-05-14T21:39:21.526Z,17.40
2018-05-14T21:41:48.983Z,17.40
2018-05-14T21:44:16.426Z,17.40
2018-05-14T21:46:43.898Z,17.40
2018-05-14T21:49:11.347Z,17.40
2018-05-14T21:51:39.604Z,17.30
2018-05-14T21:54:07.269Z,17.30
2018-05-14T21:56:35.553Z,17.20
2018-05-14T21:59:02.998Z,17.10
2018-05-14T22:01:31.267Z,17.10
2018-05-14T22:03:58.734Z,17.10
2018-05-14T22:06:26.204Z,17.10
2018-05-14T22:08:54.263Z,17.10
2018-05-14T22:11:21.726Z,17.10
2018-05-14T22:13:49.935Z,17.10
2018-05-14T22:16:17.406Z,17.00
2018-05-14T22:18:44.868Z,17.00
2018-05-14T22:21:13.444Z,17.00
2018-05-14T22:23:41.814Z,16.90
2018-05-14T22:26:09.281Z,16.90
2018-05-14T22:28:36.730Z,16.90
2018-05-14T22:31:04.180Z,16.90
2018-05-14T22:33:31.884Z,16.90
2018-05-14T22:36:00.111Z,16.70
2018-05-14T22:38:28.358Z,16.60
2018-05-14T22:40:55.845Z,16.60
2018-05-14T22:43:24.073Z,16.40
2018-05-14T22:45:51.526Z,16.40
2018-05-14T22:48:18.978Z,16.40
2018-05-14T22:50:46.435Z,16.40
2018-05-14T22:53:14.640Z,16.30
2018-05-14T22:55:42.126Z,16.30
2018-05-14T22:58:09.574Z,16.30
2018-05-14T23:00:37.015Z,16.20
2018-05-14T23:03:05.225Z,16.20
2018-05-14T23:05:32.671Z,16.20
2018-05-14T23:08:00.377Z,16.30
2018-05-14T23:10:27.878Z,16.40
2018-05-14T23:12:55.338Z,16.40
2018-05-14T23:15:22.788Z,16.30
2018-05-14T23:17:50.245Z,16.30
2018-05-14T23:20:18.459Z,16.30
2018-05-14T23:22:45.893Z,16.30
2018-05-14T23:25:13.338Z,16.30
2018-05-14T23:27:40.789Z,16.30
2018-05-14T23:30:08.240Z,16.30
2018-05-14T23:32:35.696Z,16.20
2018-05-14T23:35:03.151Z,16.30
2018-05-14T23:37:30.627Z,16.20
2018-05-14T23:39:58.070Z,16.20
2018-05-14T23:42:25.527Z,16.10
2018-05-14T23:44:52.992Z,16.10
2018-05-14T23:47:20.438Z,16.00
2018-05-14T23:49:47.888Z,16.00
2018-05-14T23:52:15.338Z,15.90
2018-05-14T23:54:42.785Z,15.90
2018-05-14T23:57:10.230Z,15.80
2018-05-14T23:59:37.686Z,15.80
